Time;durP1;ratioP1;P1;durP2;ratioP2;P2;SDS_P1;SDS_P2;PMS_P1;PMS_P2;Temp;Humidity;BMP_temperature;BMP_pressure;BME280_temperature;BME280_humidity;BME280_pressure;Samples;Min_cycle;Max_cycle;Signal;HPM_P1;HPM_P2
2022/02/13 00:00:26;;;;;;;7.20;4.70;;;4.30;1.00;;;;;;4980925;28;20203;-91
2022/02/13 00:02:55;;;;;;;8.60;5.70;;;4.30;1.00;;;;;;4980871;28;20186;-90
2022/02/13 00:05:21;;;;;;;6.77;5.30;;;4.30;1.00;;;;;;4984189;28;20242;-92
2022/02/13 00:07:46;;;;;;;9.17;5.03;;;4.30;1.00;;;;;;4979445;28;20203;-90
2022/02/13 00:10:13;;;;;;;8.10;5.10;;;4.50;1.00;;;;;;4980363;28;20203;-91
2022/02/13 00:12:40;;;;;;;8.17;5.10;;;4.30;1.00;;;;;;4979741;28;20187;-91
2022/02/13 00:15:07;;;;;;;9.70;4.97;;;4.50;1.70;;;;;;4977561;28;20566;-90
2022/02/13 00:17:33;;;;;;;8.60;5.13;;;4.20;1.30;;;;;;4978112;28;20183;-90
2022/02/13 00:19:59;;;;;;;8.57;4.90;;;4.30;1.80;;;;;;4977695;28;20203;-90
2022/02/13 00:22:25;;;;;;;10.00;5.40;;;4.30;1.50;;;;;;4976980;28;20667;-91
2022/02/13 00:24:51;;;;;;;8.00;4.60;;;4.40;2.00;;;;;;4978143;28;20176;-91
2022/02/13 00:27:17;;;;;;;6.67;5.20;;;4.20;2.40;;;;;;4978312;28;20190;-90
2022/02/13 00:29:45;;;;;;;6.37;5.10;;;4.20;2.30;;;;;;4978370;28;20179;-90
2022/02/13 00:32:11;;;;;;;10.83;5.13;;;4.20;1.20;;;;;;4978245;28;20175;-89
2022/02/13 00:34:44;;;;;;;7.07;4.80;;;4.20;1.70;;;;;;4976671;28;20184;-90
2022/02/13 00:37:10;;;;;;;9.00;5.03;;;4.20;2.80;;;;;;4977209;28;20172;-90
2022/02/13 00:39:36;;;;;;;8.87;5.17;;;4.20;1.40;;;;;;4978255;28;20172;-92
2022/02/13 00:42:02;;;;;;;8.70;5.43;;;4.20;1.30;;;;;;4977855;28;20216;-91
2022/02/13 00:44:28;;;;;;;8.93;5.10;;;4.20;1.00;;;;;;4977737;28;20191;-92
2022/02/13 00:46:55;;;;;;;10.63;5.50;;;4.30;1.00;;;;;;4977412;28;20183;-92
2022/02/13 00:49:22;;;;;;;8.40;5.03;;;4.20;1.00;;;;;;4977582;28;20180;-92
2022/02/13 00:51:49;;;;;;;7.90;5.30;;;4.20;1.00;;;;;;4978014;28;20218;-92
2022/02/13 00:54:17;;;;;;;8.47;5.23;;;4.10;1.00;;;;;;4978675;28;20172;-92
2022/02/13 00:56:44;;;;;;;7.60;5.07;;;4.30;1.00;;;;;;4978324;28;20172;-91
2022/02/13 00:59:10;;;;;;;7.47;5.37;;;4.10;1.00;;;;;;4978709;28;20206;-92
2022/02/13 01:01:36;;;;;;;8.07;4.47;;;4.10;1.00;;;;;;4977060;28;20593;-92
2022/02/13 01:04:02;;;;;;;8.23;4.40;;;4.20;1.00;;;;;;4977303;28;20183;-92
2022/02/13 01:06:28;;;;;;;6.73;4.37;;;4.10;1.00;;;;;;4978499;28;20223;-92
2022/02/13 01:08:54;;;;;;;8.27;5.00;;;3.90;1.00;;;;;;4977262;28;20199;-91
2022/02/13 01:11:20;;;;;;;6.80;4.40;;;4.00;1.00;;;;;;4977266;28;20211;-93
2022/02/13 01:13:48;;;;;;;7.20;4.60;;;4.00;1.00;;;;;;4976941;28;20645;-91
2022/02/13 01:16:18;;;;;;;8.33;4.40;;;4.10;1.00;;;;;;4977258;28;20183;-93
2022/02/13 01:18:45;;;;;;;8.00;4.83;;;4.20;1.00;;;;;;4977912;28;20183;-92
2022/02/13 01:21:12;;;;;;;11.23;4.70;;;4.10;1.00;;;;;;4977463;28;20239;-91
2022/02/13 01:23:43;;;;;;;7.03;4.70;;;4.10;1.00;;;;;;4978901;28;20269;-93
2022/02/13 01:26:10;;;;;;;8.20;4.47;;;4.10;1.00;;;;;;4978131;28;20176;-93
2022/02/13 01:28:42;;;;;;;9.00;4.87;;;4.00;1.00;;;;;;4979605;28;20176;-90
2022/02/13 01:31:10;;;;;;;10.07;4.70;;;4.10;1.00;;;;;;4979944;28;20309;-91
2022/02/13 01:33:39;;;;;;;6.70;4.23;;;4.10;1.00;;;;;;4981112;28;20246;-90
2022/02/13 01:36:08;;;;;;;7.00;4.47;;;4.00;1.00;;;;;;4980551;28;20278;-93
2022/02/13 01:38:34;;;;;;;7.83;4.43;;;4.10;1.00;;;;;;4981944;28;20206;-92
2022/02/13 01:41:01;;;;;;;7.70;4.30;;;4.10;1.00;;;;;;4983684;28;20211;-92
2022/02/13 01:43:26;;;;;;;7.23;4.97;;;4.30;1.00;;;;;;4981038;28;20178;-91
2022/02/13 01:45:53;;;;;;;7.57;5.57;;;4.20;1.00;;;;;;4983450;28;20211;-91
2022/02/13 01:48:19;;;;;;;8.53;4.87;;;4.10;1.00;;;;;;4981066;28;20176;-90
2022/02/13 01:50:49;;;;;;;8.03;4.43;;;4.10;1.00;;;;;;4981264;28;20253;-91
2022/02/13 01:53:15;;;;;;;8.30;4.90;;;4.10;1.00;;;;;;4981118;28;20551;-91
2022/02/13 01:55:45;;;;;;;7.57;4.77;;;4.10;1.00;;;;;;4981475;28;20291;-93
2022/02/13 01:58:11;;;;;;;8.80;4.43;;;4.20;1.00;;;;;;4982192;28;20191;-93
2022/02/13 02:00:37;;;;;;;7.93;4.67;;;4.10;1.00;;;;;;4981636;28;20239;-93
2022/02/13 02:03:03;;;;;;;6.00;4.23;;;4.10;1.00;;;;;;4983058;28;20173;-91
2022/02/13 02:05:30;;;;;;;7.60;4.30;;;4.00;1.00;;;;;;4981860;28;20561;-93
2022/02/13 02:07:55;;;;;;;7.83;4.57;;;4.00;1.20;;;;;;4982112;28;20175;-91
2022/02/13 02:10:24;;;;;;;7.93;4.93;;;4.00;1.00;;;;;;4981256;28;20202;-92
2022/02/13 02:12:50;;;;;;;6.90;4.87;;;4.00;1.00;;;;;;4980447;28;20274;-92
2022/02/13 02:15:19;;;;;;;6.53;4.70;;;3.90;1.00;;;;;;4980794;28;20207;-92
2022/02/13 02:17:45;;;;;;;7.40;4.40;;;4.00;2.20;;;;;;4980378;28;20171;-91
2022/02/13 02:20:12;;;;;;;7.87;5.47;;;3.90;4.60;;;;;;4982066;28;20200;-92
2022/02/13 02:22:49;;;;;;;7.40;4.73;;;3.90;4.10;;;;;;4980803;28;20656;-92
2022/02/13 02:25:16;;;;;;;7.67;4.80;;;4.00;4.20;;;;;;4982703;28;20180;-92
2022/02/13 02:27:41;;;;;;;5.80;4.80;;;3.90;4.60;;;;;;4981268;28;20275;-92
2022/02/13 02:30:09;;;;;;;8.13;5.10;;;3.90;4.70;;;;;;4981292;28;20203;-93
2022/02/13 02:32:34;;;;;;;8.97;4.87;;;4.00;2.10;;;;;;4982357;28;20639;-92
2022/02/13 02:35:04;;;;;;;7.27;5.27;;;4.00;1.00;;;;;;4980383;28;20199;-93
2022/02/13 02:37:33;;;;;;;7.57;4.63;;;4.00;1.60;;;;;;4979979;28;20753;-92
2022/02/13 02:39:59;;;;;;;8.23;4.97;;;4.00;1.00;;;;;;4979208;28;20175;-91
2022/02/13 02:42:30;;;;;;;6.27;4.90;;;4.00;2.40;;;;;;4984146;28;20342;-91
2022/02/13 02:44:59;;;;;;;8.47;5.30;;;4.00;1.10;;;;;;4995480;28;20288;-91
2022/02/13 02:47:29;;;;;;;7.67;4.63;;;4.10;3.10;;;;;;5011883;28;20191;-92
2022/02/13 02:50:05;;;;;;;7.20;4.97;;;4.00;3.30;;;;;;4996475;28;20171;-91
2022/02/13 02:52:31;;;;;;;7.87;5.00;;;4.10;1.00;;;;;;4979085;28;20243;-91
2022/02/13 02:54:57;;;;;;;9.87;5.23;;;4.10;1.00;;;;;;4979660;28;20164;-93
2022/02/13 02:57:26;;;;;;;7.27;4.60;;;4.10;1.00;;;;;;4980386;28;20195;-90
2022/02/13 02:59:53;;;;;;;9.40;5.23;;;4.00;1.00;;;;;;4979991;28;20186;-91
2022/02/13 03:02:22;;;;;;;7.97;4.50;;;4.10;1.00;;;;;;4978417;28;20273;-91
2022/02/13 03:04:47;;;;;;;6.33;4.73;;;4.00;1.00;;;;;;4981067;28;20179;-92
2022/02/13 03:07:13;;;;;;;7.27;4.60;;;4.00;2.50;;;;;;4980749;28;20168;-91
2022/02/13 03:09:42;;;;;;;8.20;5.37;;;3.90;5.00;;;;;;4979972;28;20168;-91
2022/02/13 03:12:08;;;;;;;8.67;5.00;;;3.90;8.50;;;;;;4980320;28;20179;-91
2022/02/13 03:14:36;;;;;;;6.03;5.33;;;3.90;8.80;;;;;;4979274;28;20167;-92
2022/02/13 03:17:06;;;;;;;7.87;4.90;;;3.80;10.40;;;;;;4983631;28;20199;-90
2022/02/13 03:19:35;;;;;;;7.77;4.90;;;3.90;9.60;;;;;;4987668;28;20172;-92
2022/02/13 03:22:01;;;;;;;7.37;5.00;;;3.90;11.00;;;;;;4986987;28;20211;-91
2022/02/13 03:24:26;;;;;;;7.63;4.63;;;3.90;12.10;;;;;;4988127;28;20190;-91
2022/02/13 03:26:52;;;;;;;8.13;5.30;;;3.90;11.10;;;;;;4990426;28;20171;-91
2022/02/13 03:29:19;;;;;;;6.03;4.70;;;3.90;11.70;;;;;;4988904;28;20205;-92
2022/02/13 03:31:46;;;;;;;8.43;5.43;;;3.90;12.50;;;;;;4985579;28;20247;-90
2022/02/13 03:34:11;;;;;;;7.57;4.90;;;3.90;12.00;;;;;;4995441;28;20164;-90
2022/02/13 03:36:37;;;;;;;8.70;5.33;;;3.90;12.40;;;;;;4995052;28;20182;-91
2022/02/13 03:39:05;;;;;;;8.47;4.87;;;3.90;11.60;;;;;;4993516;28;20186;-90
2022/02/13 03:41:31;;;;;;;6.73;4.60;;;4.00;13.00;;;;;;4995597;28;20207;-91
2022/02/13 03:43:57;;;;;;;8.50;5.00;;;3.90;12.00;;;;;;4993475;28;20195;-89
2022/02/13 03:46:23;;;;;;;7.67;5.00;;;3.90;12.80;;;;;;4990620;28;20180;-94
2022/02/13 03:48:49;;;;;;;7.87;5.23;;;4.10;13.40;;;;;;4991613;28;20171;-90
2022/02/13 03:51:15;;;;;;;8.57;4.67;;;3.90;14.60;;;;;;4994834;28;20377;-91
2022/02/13 03:53:41;;;;;;;8.80;5.43;;;4.00;15.60;;;;;;4994412;28;20203;-93
2022/02/13 03:56:07;;;;;;;7.47;5.03;;;3.90;14.60;;;;;;4994780;28;20246;-89
2022/02/13 03:58:33;;;;;;;8.97;5.17;;;3.90;15.70;;;;;;4992916;28;20175;-90
2022/02/13 04:01:00;;;;;;;7.47;4.90;;;4.00;17.80;;;;;;4985411;28;20261;-92
2022/02/13 04:03:27;;;;;;;7.73;5.10;;;3.80;19.00;;;;;;4983768;28;20180;-92
2022/02/13 04:05:55;;;;;;;8.90;4.97;;;3.80;19.00;;;;;;4978960;28;20175;-93
2022/02/13 04:08:29;;;;;;;9.33;4.70;;;3.90;20.60;;;;;;4979548;28;20270;-92
2022/02/13 04:10:56;;;;;;;6.33;4.90;;;3.80;22.30;;;;;;4981896;28;20182;-91
2022/02/13 04:13:21;;;;;;;7.70;5.40;;;3.80;22.30;;;;;;4977982;28;20179;-90
2022/02/13 04:15:47;;;;;;;9.50;5.63;;;3.70;22.60;;;;;;4980025;28;20175;-91
2022/02/13 04:18:15;;;;;;;8.57;5.30;;;3.80;22.50;;;;;;4977578;28;20183;-93
2022/02/13 04:20:42;;;;;;;8.17;5.13;;;3.70;23.10;;;;;;4977079;28;20243;-94
2022/02/13 04:23:08;;;;;;;6.77;5.30;;;3.70;24.00;;;;;;4978193;28;20167;-93
2022/02/13 04:25:34;;;;;;;6.63;5.00;;;3.90;23.70;;;;;;4978235;28;20231;-93
2022/02/13 04:28:00;;;;;;;8.20;5.30;;;3.80;24.00;;;;;;4978432;28;20609;-93
2022/02/13 04:30:26;;;;;;;6.33;4.57;;;3.70;24.30;;;;;;4978856;28;20184;-92
2022/02/13 04:32:53;;;;;;;7.73;5.00;;;3.70;24.90;;;;;;4978800;28;20647;-93
2022/02/13 04:35:19;;;;;;;9.20;6.37;;;3.80;26.40;;;;;;4978580;28;20171;-92
2022/02/13 04:37:56;;;;;;;10.63;4.90;;;3.80;23.30;;;;;;4977296;28;20753;-92
2022/02/13 04:40:23;;;;;;;9.37;5.13;;;3.80;23.50;;;;;;4976446;28;20218;-93
2022/02/13 04:42:49;;;;;;;8.90;5.20;;;3.70;24.00;;;;;;4978310;28;20176;-93
2022/02/13 04:45:16;;;;;;;7.40;5.63;;;3.80;23.80;;;;;;4977710;28;20187;-93
2022/02/13 04:47:42;;;;;;;8.50;4.73;;;4.00;22.40;;;;;;4977959;28;20207;-93
2022/02/13 04:50:08;;;;;;;10.07;4.87;;;3.80;24.00;;;;;;4984810;28;20179;-93
2022/02/13 04:52:35;;;;;;;7.10;5.23;;;3.80;23.10;;;;;;4997319;28;20172;-90
2022/02/13 04:55:01;;;;;;;9.60;5.23;;;3.80;22.30;;;;;;4997543;28;20187;-90
2022/02/13 04:57:27;;;;;;;7.23;5.73;;;4.00;22.40;;;;;;4996900;28;20219;-93
2022/02/13 04:59:53;;;;;;;8.17;5.13;;;3.70;23.10;;;;;;4980632;28;20234;-93
2022/02/13 05:02:19;;;;;;;9.97;5.10;;;3.70;23.20;;;;;;4977230;28;20227;-92
2022/02/13 05:04:45;;;;;;;9.23;5.40;;;3.90;22.70;;;;;;4977741;28;20180;-92
2022/02/13 05:07:12;;;;;;;7.60;5.10;;;3.70;23.00;;;;;;4977768;28;20657;-92
2022/02/13 05:09:38;;;;;;;7.10;5.07;;;3.70;22.30;;;;;;4980194;28;20603;-92
2022/02/13 05:12:04;;;;;;;7.33;5.00;;;3.70;22.30;;;;;;4981994;28;20312;-93
2022/02/13 05:14:30;;;;;;;7.80;4.83;;;3.70;22.00;;;;;;4980955;28;20183;-92
2022/02/13 05:16:58;;;;;;;9.07;5.53;;;3.80;21.30;;;;;;4980467;28;20184;-92
2022/02/13 05:19:24;;;;;;;6.77;5.07;;;3.70;20.50;;;;;;4992717;28;20176;-92
2022/02/13 05:21:54;;;;;;;8.73;4.87;;;3.70;19.70;;;;;;5000518;28;20250;-90
2022/02/13 05:24:23;;;;;;;9.47;5.20;;;3.90;19.20;;;;;;5000952;28;20172;-91
2022/02/13 05:26:51;;;;;;;7.70;4.77;;;3.70;20.50;;;;;;5000962;28;20175;-91
2022/02/13 05:29:18;;;;;;;8.83;5.10;;;3.70;19.70;;;;;;4989518;28;20168;-91
2022/02/13 05:31:44;;;;;;;7.60;4.53;;;3.80;20.30;;;;;;4983688;28;20172;-90
2022/02/13 05:34:15;;;;;;;8.63;5.17;;;3.70;19.50;;;;;;4991656;28;20180;-91
2022/02/13 05:36:42;;;;;;;8.77;4.93;;;3.90;19.40;;;;;;4999091;28;20258;-91
2022/02/13 05:39:08;;;;;;;6.33;4.90;;;3.80;18.50;;;;;;4998571;28;20203;-91
2022/02/13 05:41:34;;;;;;;7.13;5.00;;;3.70;19.70;;;;;;4993930;28;20227;-92
2022/02/13 05:43:59;;;;;;;8.87;5.07;;;3.80;18.80;;;;;;4937611;28;1418521;-92
2022/02/13 05:46:25;;;;;;;7.87;4.47;;;3.70;17.30;;;;;;4994425;28;20230;-92
2022/02/13 05:48:54;;;;;;;6.47;4.73;;;3.80;16.10;;;;;;4981152;28;20687;-92
2022/02/13 05:51:23;;;;;;;9.27;4.73;;;3.80;17.10;;;;;;4982158;28;20222;-93
2022/02/13 05:53:50;;;;;;;7.83;5.00;;;3.80;17.10;;;;;;4980758;28;20267;-92
2022/02/13 05:56:16;;;;;;;7.60;4.60;;;3.90;16.70;;;;;;4980061;28;20243;-92
2022/02/13 05:58:42;;;;;;;7.57;4.80;;;3.70;17.90;;;;;;4981176;28;20211;-91
2022/02/13 06:01:09;;;;;;;6.50;4.20;;;3.80;17.00;;;;;;4982324;28;20235;-92
2022/02/13 06:03:35;;;;;;;7.67;5.33;;;3.80;16.10;;;;;;4987485;28;20207;-92
2022/02/13 06:06:02;;;;;;;6.23;4.20;;;3.80;15.90;;;;;;4995214;28;20560;-92
2022/02/13 06:08:30;;;;;;;8.30;5.07;;;3.90;13.80;;;;;;4998890;28;20203;-91
2022/02/13 06:10:56;;;;;;;8.83;4.60;;;3.90;12.20;;;;;;5000911;28;20199;-90
2022/02/13 06:13:21;;;;;;;7.93;4.50;;;3.80;13.70;;;;;;5001459;28;20171;-89
2022/02/13 06:15:49;;;;;;;8.03;4.80;;;3.90;12.00;;;;;;4998305;28;20190;-92
2022/02/13 06:18:16;;;;;;;7.33;4.90;;;3.90;12.50;;;;;;4981923;28;20374;-92
2022/02/13 06:20:45;;;;;;;5.80;4.67;;;3.90;12.10;;;;;;4980692;28;20275;-91
2022/02/13 06:23:11;;;;;;;7.47;4.70;;;3.90;11.90;;;;;;4987084;28;20683;-91
2022/02/13 06:25:38;;;;;;;8.80;4.90;;;3.80;12.10;;;;;;4986357;28;20200;-90
2022/02/13 06:28:05;;;;;;;6.93;4.93;;;3.90;12.00;;;;;;4984941;28;20176;-91
2022/02/13 06:30:32;;;;;;;7.60;4.67;;;3.90;11.60;;;;;;4984380;28;20225;-91
2022/02/13 06:32:59;;;;;;;5.93;4.27;;;4.00;10.10;;;;;;4983965;28;20270;-91
2022/02/13 06:35:28;;;;;;;7.50;5.40;;;3.90;8.10;;;;;;4984311;28;20176;-91
2022/02/13 06:37:55;;;;;;;8.20;5.53;;;4.00;6.80;;;;;;4985652;28;20184;-92
2022/02/13 06:40:20;;;;;;;6.30;4.67;;;4.00;6.00;;;;;;4984074;28;20211;-92
2022/02/13 06:42:46;;;;;;;5.30;4.20;;;4.00;4.20;;;;;;4983251;28;20188;-91
2022/02/13 06:45:14;;;;;;;8.97;4.30;;;4.10;2.40;;;;;;4983896;28;20203;-92
2022/02/13 06:47:41;;;;;;;5.83;4.30;;;4.10;3.20;;;;;;4982525;28;20184;-92
2022/02/13 06:50:07;;;;;;;5.40;3.90;;;4.10;2.20;;;;;;4984784;28;20176;-92
2022/02/13 06:52:33;;;;;;;6.57;4.60;;;4.10;1.00;;;;;;4985553;28;20199;-93
2022/02/13 06:55:02;;;;;;;8.63;5.40;;;4.10;1.00;;;;;;4986460;28;20252;-92
2022/02/13 06:57:27;;;;;;;7.80;5.17;;;4.10;1.00;;;;;;4984185;28;20187;-92
2022/02/13 06:59:54;;;;;;;7.83;5.50;;;4.10;1.00;;;;;;4983049;28;20210;-93
2022/02/13 07:02:20;;;;;;;6.30;4.77;;;4.10;1.00;;;;;;4981435;28;20339;-91
2022/02/13 07:04:46;;;;;;;7.97;4.83;;;4.10;1.00;;;;;;4980481;28;20176;-91
2022/02/13 07:07:13;;;;;;;6.67;4.67;;;4.40;1.00;;;;;;4980031;28;20260;-92
2022/02/13 07:09:39;;;;;;;7.73;4.60;;;4.30;1.00;;;;;;4980094;28;20186;-92
2022/02/13 07:12:09;;;;;;;6.40;4.80;;;4.20;1.00;;;;;;4980928;28;20179;-92
2022/02/13 07:14:39;;;;;;;7.63;5.13;;;4.20;1.00;;;;;;4978776;28;20200;-92
2022/02/13 07:17:05;;;;;;;7.60;4.73;;;4.40;1.00;;;;;;4979760;28;20624;-92
2022/02/13 07:19:31;;;;;;;9.53;5.00;;;4.40;1.00;;;;;;4979374;28;20699;-92
2022/02/13 07:21:58;;;;;;;7.73;4.63;;;4.20;1.00;;;;;;4979055;28;20219;-91
2022/02/13 07:24:24;;;;;;;6.67;4.53;;;4.20;1.00;;;;;;4981086;28;20636;-92
2022/02/13 07:26:50;;;;;;;7.13;4.67;;;4.40;1.00;;;;;;4981134;28;20182;-92
2022/02/13 07:29:16;;;;;;;8.37;5.13;;;4.30;1.00;;;;;;4979619;28;20186;-93
2022/02/13 07:31:44;;;;;;;7.67;4.73;;;4.40;1.00;;;;;;4977749;28;20662;-92
2022/02/13 07:34:13;;;;;;;5.90;4.70;;;4.50;1.00;;;;;;4981032;28;20187;-92
2022/02/13 07:36:39;;;;;;;5.67;4.47;;;4.50;1.00;;;;;;4982747;28;20171;-92
2022/02/13 07:39:05;;;;;;;8.67;4.67;;;4.70;1.00;;;;;;4979938;28;20219;-93
2022/02/13 07:41:32;;;;;;;8.20;4.53;;;4.60;1.00;;;;;;4980398;28;20216;-93
2022/02/13 07:43:58;;;;;;;8.37;4.53;;;4.70;1.00;;;;;;4980355;28;20184;-92
2022/02/13 07:46:24;;;;;;;7.13;4.90;;;4.60;1.00;;;;;;4980799;28;20276;-92
2022/02/13 07:48:50;;;;;;;7.13;4.83;;;4.90;1.00;;;;;;4979443;28;20183;-92
2022/02/13 07:51:16;;;;;;;9.20;4.90;;;5.00;1.00;;;;;;4994984;28;20202;-93
2022/02/13 07:53:44;;;;;;;5.70;4.67;;;5.10;1.00;;;;;;4979267;28;20180;-92
2022/02/13 07:56:10;;;;;;;7.43;4.40;;;5.20;1.00;;;;;;4980656;28;20257;-93
2022/02/13 07:58:36;;;;;;;6.53;4.47;;;5.10;1.00;;;;;;4995062;28;20176;-92
2022/02/13 08:01:04;;;;;;;8.67;5.33;;;5.20;1.00;;;;;;4979644;28;20223;-92
2022/02/13 08:03:30;;;;;;;5.63;4.33;;;5.20;1.00;;;;;;4978473;28;20172;-92
2022/02/13 08:05:56;;;;;;;7.77;4.23;;;5.20;1.00;;;;;;4978451;28;20190;-90
2022/02/13 08:08:22;;;;;;;7.60;4.80;;;5.30;1.00;;;;;;4977580;28;20172;-92
2022/02/13 08:10:48;;;;;;;7.30;4.83;;;5.30;1.00;;;;;;4977156;28;20719;-92
2022/02/13 08:13:16;;;;;;;6.50;4.17;;;5.30;1.00;;;;;;4978281;28;20198;-90
2022/02/13 08:15:43;;;;;;;8.17;4.53;;;5.30;1.00;;;;;;4996760;28;20172;-93
2022/02/13 08:18:15;;;;;;;5.93;4.60;;;5.40;1.00;;;;;;4977664;28;20632;-92
2022/02/13 08:20:41;;;;;;;7.83;4.83;;;5.50;1.00;;;;;;4977718;28;20285;-91
2022/02/13 08:23:11;;;;;;;6.63;4.80;;;5.30;1.00;;;;;;4977961;28;20184;-92
2022/02/13 08:25:39;;;;;;;6.13;4.80;;;5.30;1.00;;;;;;4979802;28;20159;-92
2022/02/13 08:28:05;;;;;;;6.97;4.87;;;5.40;1.00;;;;;;4978492;28;20203;-92
2022/02/13 08:30:30;;;;;;;6.00;4.33;;;5.40;1.00;;;;;;4977684;28;20203;-91
2022/02/13 08:32:58;;;;;;;7.60;4.73;;;5.50;2.50;;;;;;4977284;28;20215;-93
2022/02/13 08:35:26;;;;;;;6.67;4.73;;;5.60;1.00;;;;;;4977851;28;20187;-93
2022/02/13 08:37:52;;;;;;;7.90;4.53;;;5.70;1.00;;;;;;4979645;28;20692;-92
2022/02/13 08:40:19;;;;;;;7.67;5.20;;;5.70;1.00;;;;;;4978312;28;20229;-92
2022/02/13 08:42:45;;;;;;;7.30;5.30;;;5.80;1.00;;;;;;4980036;28;20180;-92
2022/02/13 08:45:11;;;;;;;7.10;4.87;;;5.90;1.00;;;;;;4982397;28;20199;-93
2022/02/13 08:47:40;;;;;;;7.97;4.97;;;6.00;1.00;;;;;;4982673;28;20186;-92
2022/02/13 08:50:06;;;;;;;10.80;6.07;;;6.10;1.00;;;;;;4983711;28;20187;-92
2022/02/13 08:52:32;;;;;;;8.33;4.83;;;6.10;1.00;;;;;;4982318;28;20259;-91
2022/02/13 08:54:58;;;;;;;7.03;4.93;;;6.20;1.00;;;;;;4982234;28;20191;-90
2022/02/13 08:57:24;;;;;;;7.17;4.90;;;6.10;1.00;;;;;;4982887;28;20171;-90
2022/02/13 08:59:49;;;;;;;6.67;5.10;;;6.10;1.00;;;;;;4982054;28;20188;-92
2022/02/13 09:02:15;;;;;;;8.87;4.80;;;6.20;1.00;;;;;;4980595;28;20203;-92
2022/02/13 09:04:40;;;;;;;9.40;4.97;;;6.30;1.00;;;;;;4981371;28;20172;-92
2022/02/13 09:07:06;;;;;;;6.60;4.60;;;6.40;1.00;;;;;;4980977;28;20551;-91
2022/02/13 09:09:35;;;;;;;5.97;4.33;;;6.50;1.00;;;;;;4983983;28;20184;-92
2022/02/13 09:12:02;;;;;;;6.90;4.43;;;6.60;1.00;;;;;;4983279;28;20214;-91
2022/02/13 09:14:30;;;;;;;7.73;5.07;;;6.60;1.00;;;;;;4984804;28;20180;-92
2022/02/13 09:16:55;;;;;;;8.03;4.80;;;6.70;1.00;;;;;;4987157;28;20179;-91
2022/02/13 09:19:23;;;;;;;6.53;4.20;;;6.80;1.00;;;;;;4981674;28;20190;-90
2022/02/13 09:21:52;;;;;;;7.13;4.43;;;7.00;1.00;;;;;;4982755;28;20215;-91
2022/02/13 09:24:22;;;;;;;6.27;4.60;;;7.10;1.00;;;;;;4982204;28;20866;-91
2022/02/13 09:26:48;;;;;;;7.27;4.53;;;7.20;1.00;;;;;;4981931;28;20195;-90
2022/02/13 09:29:17;;;;;;;5.40;3.83;;;7.10;1.00;;;;;;4982224;28;20620;-91
2022/02/13 09:31:43;;;;;;;6.80;4.57;;;7.20;1.00;;;;;;4983217;28;20167;-91
2022/02/13 09:34:12;;;;;;;6.83;4.90;;;7.30;1.00;;;;;;4984028;28;20183;-90
2022/02/13 09:36:40;;;;;;;6.20;4.60;;;7.30;1.00;;;;;;4988983;28;20179;-91
2022/02/13 09:39:11;;;;;;;8.53;4.57;;;7.30;1.00;;;;;;5008817;28;20192;-90
2022/02/13 09:41:40;;;;;;;6.10;4.53;;;7.30;1.00;;;;;;4991590;28;20212;-89
2022/02/13 09:44:08;;;;;;;6.67;4.27;;;7.40;1.00;;;;;;4992901;28;20179;-91
2022/02/13 09:46:35;;;;;;;6.00;4.50;;;7.40;1.00;;;;;;4983959;28;20191;-89
2022/02/13 09:49:01;;;;;;;7.57;4.83;;;7.50;1.00;;;;;;4997450;28;20179;-91
2022/02/13 09:51:30;;;;;;;7.23;4.57;;;7.70;1.00;;;;;;4981518;28;20212;-91
2022/02/13 09:53:59;;;;;;;7.07;4.47;;;7.70;1.00;;;;;;4982938;28;20211;-92
2022/02/13 09:56:26;;;;;;;7.23;4.47;;;7.70;1.00;;;;;;4982579;28;20184;-91
2022/02/13 09:58:52;;;;;;;5.30;4.10;;;7.70;1.00;;;;;;4982651;28;20186;-91
2022/02/13 10:01:18;;;;;;;7.13;4.60;;;8.00;1.00;;;;;;4982618;28;20342;-91
2022/02/13 10:03:46;;;;;;;7.17;4.03;;;8.00;1.00;;;;;;4983959;28;20156;-90
2022/02/13 10:06:11;;;;;;;5.17;3.80;;;8.00;1.00;;;;;;4981860;28;20176;-90
2022/02/13 10:08:45;;;;;;;5.50;3.93;;;8.10;1.00;;;;;;4981896;28;20654;-91
2022/02/13 10:11:17;;;;;;;4.73;3.77;;;8.40;1.00;;;;;;4981540;28;20176;-91
2022/02/13 10:14:12;;;;;;;6.17;4.07;;;8.30;1.00;;;;;;4983179;28;20279;-90
2022/02/13 10:16:39;;;;;;;6.37;4.30;;;8.30;1.00;;;;;;4985073;28;20184;-89
2022/02/13 10:19:15;;;;;;;6.20;3.97;;;8.30;1.00;;;;;;4983628;28;20199;-89
2022/02/13 10:21:42;;;;;;;7.13;4.27;;;8.30;1.00;;;;;;4982705;28;20249;-91
2022/02/13 10:24:16;;;;;;;7.10;3.80;;;8.40;1.00;;;;;;4983726;28;20184;-90
2022/02/13 10:26:43;;;;;;;5.37;3.50;;;8.40;1.00;;;;;;4981974;28;20184;-90
2022/02/13 10:29:11;;;;;;;6.53;4.37;;;8.40;1.00;;;;;;4983069;28;20594;-90
2022/02/13 10:31:40;;;;;;;6.43;4.20;;;8.60;1.00;;;;;;4981585;28;20184;-91
2022/02/13 10:34:06;;;;;;;5.33;3.70;;;8.60;1.00;;;;;;4980807;28;20180;-90
2022/02/13 10:36:40;;;;;;;6.70;4.37;;;8.70;1.00;;;;;;4981447;28;20182;-91
2022/02/13 10:39:24;;;;;;;7.33;4.70;;;8.80;1.00;;;;;;4981612;28;20190;-91
2022/02/13 10:41:53;;;;;;;8.33;4.33;;;8.90;1.00;;;;;;4983446;28;20219;-90
2022/02/13 10:44:30;;;;;;;6.23;4.37;;;8.90;1.00;;;;;;4981540;28;20197;-90
2022/02/13 10:46:56;;;;;;;7.13;4.37;;;9.00;1.00;;;;;;4982004;28;20175;-88
2022/02/13 10:49:23;;;;;;;6.60;4.53;;;9.00;1.00;;;;;;4981734;28;20190;-92
2022/02/13 10:51:49;;;;;;;7.33;4.67;;;9.00;1.00;;;;;;4982858;28;20175;-90
2022/02/13 10:54:18;;;;;;;5.30;4.37;;;9.00;1.00;;;;;;4984169;28;20176;-89
2022/02/13 10:56:44;;;;;;;6.20;4.00;;;9.00;1.00;;;;;;4994780;28;20175;-89
2022/02/13 10:59:12;;;;;;;11.43;4.30;;;9.00;1.00;;;;;;4994075;28;20219;-90
2022/02/13 11:01:40;;;;;;;5.40;4.17;;;9.10;1.00;;;;;;4993843;28;20261;-90
2022/02/13 11:04:09;;;;;;;5.93;3.80;;;9.30;1.00;;;;;;4987353;28;20187;-91
2022/02/13 11:06:37;;;;;;;7.30;4.00;;;9.40;1.00;;;;;;4980308;28;20573;-91
2022/02/13 11:09:17;;;;;;;6.50;3.50;;;9.60;1.00;;;;;;4980436;28;20175;-89
2022/02/13 11:11:45;;;;;;;4.30;3.30;;;9.80;1.00;;;;;;4982282;28;20191;-90
2022/02/13 11:14:34;;;;;;;6.20;3.90;;;9.80;1.00;;;;;;4984773;28;20318;-90
2022/02/13 11:17:03;;;;;;;7.93;3.83;;;9.80;1.00;;;;;;4987055;28;20167;-90
2022/02/13 11:19:38;;;;;;;5.57;3.63;;;9.70;1.00;;;;;;4986036;28;20179;-89
2022/02/13 11:22:05;;;;;;;5.20;3.30;;;9.80;1.00;;;;;;4984864;28;20203;-90
2022/02/13 11:24:36;;;;;;;7.53;3.00;;;9.80;1.00;;;;;;4986884;28;20270;-87
2022/02/13 11:27:08;;;;;;;5.07;3.00;;;9.80;1.00;;;;;;4987606;28;20195;-90
2022/02/13 11:29:56;;;;;;;4.73;3.03;;;9.90;1.00;;;;;;4987870;28;20176;-89
2022/02/13 11:32:48;;;;;;;6.07;3.17;;;9.90;1.00;;;;;;4987616;28;20176;-89
2022/02/13 11:36:00;;;;;;;5.83;3.23;;;10.10;1.00;;;;;;4987239;28;20176;-93
2022/02/13 11:38:47;;;;;;;4.93;3.40;;;10.20;1.00;;;;;;4994493;28;20187;-88
2022/02/13 11:41:21;;;;;;;5.43;3.40;;;10.30;1.00;;;;;;4996132;28;20294;-89
2022/02/13 11:43:50;;;;;;;5.17;3.53;;;10.40;1.00;;;;;;4994598;28;20182;-89
2022/02/13 11:46:35;;;;;;;5.80;3.83;;;10.60;1.00;;;;;;4993070;28;20176;-89
2022/02/13 11:49:15;;;;;;;7.70;4.77;;;10.60;1.00;;;;;;4990174;28;20179;-89
2022/02/13 11:52:00;;;;;;;6.73;4.57;;;10.70;1.00;;;;;;4993174;28;20187;-92
2022/02/13 11:54:44;;;;;;;6.77;4.50;;;10.70;1.00;;;;;;4993957;28;20187;-89
2022/02/13 11:57:22;;;;;;;6.43;4.10;;;10.60;1.00;;;;;;4993336;28;20168;-90
2022/02/13 12:00:10;;;;;;;7.00;4.30;;;10.60;1.00;;;;;;5010531;28;20171;-92
2022/02/13 12:02:41;;;;;;;7.97;4.70;;;10.60;1.00;;;;;;4997241;28;20215;-89
2022/02/13 12:05:10;;;;;;;8.43;5.13;;;10.70;1.00;;;;;;4995967;28;20195;-88
2022/02/13 12:07:45;;;;;;;9.97;5.03;;;10.80;1.00;;;;;;4990547;28;20214;-90
2022/02/13 12:10:13;;;;;;;11.03;5.40;;;11.00;1.00;;;;;;4983952;28;20186;-91
2022/02/13 12:12:40;;;;;;;7.97;5.03;;;11.00;1.00;;;;;;4986459;28;20259;-90
2022/02/13 12:15:17;;;;;;;10.07;4.67;;;10.90;1.00;;;;;;4985522;28;20203;-90
2022/02/13 12:17:50;;;;;;;8.97;5.30;;;10.90;1.00;;;;;;4985515;28;20184;-90
2022/02/13 12:20:19;;;;;;;12.03;5.57;;;10.80;1.00;;;;;;4988159;28;20223;-89
2022/02/13 12:23:02;;;;;;;8.27;4.90;;;10.90;1.00;;;;;;4989348;28;20286;-87
2022/02/13 12:25:32;;;;;;;8.33;5.27;;;10.90;1.00;;;;;;4994916;28;20182;-89
2022/02/13 12:28:19;;;;;;;8.27;4.80;;;10.80;1.00;;;;;;4995280;28;20251;-88
2022/02/13 12:30:56;;;;;;;8.10;4.90;;;10.70;1.00;;;;;;4993268;28;20199;-93
2022/02/13 12:33:27;;;;;;;10.07;5.30;;;10.90;1.00;;;;;;4992564;28;20180;-90
2022/02/13 12:36:00;;;;;;;7.33;4.73;;;11.00;1.00;;;;;;4991770;28;20187;-92
2022/02/13 12:38:32;;;;;;;9.57;4.63;;;11.10;1.00;;;;;;4985480;28;20400;-90
2022/02/13 12:41:01;;;;;;;8.37;5.17;;;11.20;1.00;;;;;;4990773;28;20214;-88
2022/02/13 12:43:29;;;;;;;8.10;4.70;;;11.30;1.00;;;;;;4996652;28;20203;-91
2022/02/13 12:46:04;;;;;;;11.47;6.37;;;11.30;1.00;;;;;;4996625;28;20259;-90
2022/02/13 12:48:54;;;;;;;9.50;5.40;;;11.30;1.00;;;;;;4990407;28;20206;-91
2022/02/13 12:51:34;;;;;;;8.20;4.87;;;11.20;1.00;;;;;;4985692;28;20172;-90
2022/02/13 12:54:01;;;;;;;9.30;4.93;;;11.10;1.00;;;;;;4984279;28;20195;-91
2022/02/13 12:56:27;;;;;;;10.70;4.80;;;11.10;1.00;;;;;;4998279;28;20172;-89
2022/02/13 12:58:54;;;;;;;8.33;5.33;;;11.20;1.00;;;;;;4981583;28;20215;-89
2022/02/13 13:01:32;;;;;;;7.77;4.73;;;11.30;1.00;;;;;;4988373;28;20203;-88
2022/02/13 13:04:03;;;;;;;8.13;4.67;;;11.20;1.00;;;;;;4993810;28;20199;-87
2022/02/13 13:06:32;;;;;;;10.13;4.83;;;11.20;1.00;;;;;;4993279;28;20189;-90
2022/02/13 13:08:59;;;;;;;7.60;4.33;;;11.20;1.00;;;;;;4982588;28;20626;-90